Wilber, Nebraska
Current Conditions -  °F | °C
As of 1:55 PM on Sunday 23 Nov 2014 (Local Time) from KBIE Reporting Station
Overcast Overcast  
Wind Chill: 35°   Ceiling: 3900
Heat Index: 45°   Visibility: 10mi
Dew Point: 36°   Wind: 26mph
Humidity: 72%   Direction: 350°N
Pressure: 29.49"   Gusts: 35mph
Location:  40.48°N, 96.96°W
Report Text: KBIE 231955Z AUTO 35023G30KT 10SM SCT024 OVC039 07/02 A2949 RMK AO2 T00700023
Loading
Personal Weather Stations






























Interactive Weather Map New forecast layout! Learn more

10-Day Weather Forecast

Advertisements
Track Severe Weather on mobile